Santa Margherita — V7JA2 — position and weather

sailwx.info

Track history (hours):
 
Tides and Currents Weather Stations Pressure Air Temp Water Temp Dewpoint Dewpoint Depression Visibility Wind Speed Wind Dir Waves Ship Positions

Santa Margherita

Last reported at 2018-Feb-07 08:24 UTC. Time now 2018-Feb-19 16:11 UTC.
Position S 07°12' E 112°44'.
Warning: this ship's position is 12 days out of date.

Length 190 m; draft 8.1 m.

Type: Cargo ship. MMSI: 538090191.

Date/timePositionNaut miles runAvg speedWind from/ knotsBaromVisibWave heightAir tempDewpointWater temp
2018-Feb-07 08:24S 07°12' E 112°44'0 0.0
2018-Feb-07 05:19S 07°12' E 112°44'0 0.4
2018-Feb-07 05:00S 07°12' E 112°44'2 4.1
2018-Feb-07 04:30S 07°11' E 112°42'5 9.6
2018-Feb-07 04:00S 07°07' E 112°40'510.8
2018-Feb-07 03:30S 07°01' E 112°40'510.2
2018-Feb-07 03:00S 06°57' E 112°43'5 9.6
2018-Feb-07 02:30S 06°52' E 112°45'3 5.5
2018-Feb-07 02:00S 06°50' E 112°45'1 0.1
2018-Feb-06 11:09S 06°50' E 112°47'0 0.0
2018-Feb-05 21:39S 06°50' E 112°47'0 1.6
2018-Feb-05 21:30S 06°50' E 112°47'  
2018-Feb-03 06:07N 01°16' E 104°05'3 9.0
2018-Feb-03 05:50N 01°17' E 104°02'2 1.1
2018-Feb-03 03:41N 01°18' E 104°00'0 0.0
2018-Feb-02 17:32N 01°18' E 104°00'0 0.2
2018-Feb-02 17:04N 01°18' E 104°00'0 1.2
2018-Feb-02 17:00N 01°18' E 104°00'3 3.4
2018-Feb-02 16:16N 01°16' E 103°58'6 7.1
2018-Feb-02 15:29N 01°16' E 104°04'  
Track history (hours):
 
Tides and Currents Weather Stations Pressure Air Temp Water Temp Dewpoint Dewpoint Depression Visibility Wind Speed Wind Dir Waves Ship Positions

Santa Margherita

Last reported at 2018-Feb-07 08:24 UTC. Time now 2018-Feb-19 16:11 UTC.
Position S 07°12' E 112°44'.
Warning: this ship's position is 12 days out of date.

Length 190 m; draft 8.1 m.

Type: Cargo ship. MMSI: 538090191.

Date/timePositionNaut miles runAvg speedWind from/ knotsBaromVisibWave heightAir tempDewpointWater temp
2018-Feb-07 08:24S 07°12' E 112°44'0 0.0
2018-Feb-07 05:19S 07°12' E 112°44'0 0.4
2018-Feb-07 05:00S 07°12' E 112°44'2 4.1
2018-Feb-07 04:30S 07°11' E 112°42'5 9.6
2018-Feb-07 04:00S 07°07' E 112°40'510.8
2018-Feb-07 03:30S 07°01' E 112°40'510.2
2018-Feb-07 03:00S 06°57' E 112°43'5 9.6
2018-Feb-07 02:30S 06°52' E 112°45'3 5.5
2018-Feb-07 02:00S 06°50' E 112°45'1 0.1
2018-Feb-06 11:09S 06°50' E 112°47'0 0.0
2018-Feb-05 21:39S 06°50' E 112°47'0 1.6
2018-Feb-05 21:30S 06°50' E 112°47'  
2018-Feb-03 06:07N 01°16' E 104°05'3 9.0
2018-Feb-03 05:50N 01°17' E 104°02'2 1.1
2018-Feb-03 03:41N 01°18' E 104°00'0 0.0
2018-Feb-02 17:32N 01°18' E 104°00'0 0.2
2018-Feb-02 17:04N 01°18' E 104°00'0 1.2
2018-Feb-02 17:00N 01°18' E 104°00'3 3.4
2018-Feb-02 16:16N 01°16' E 103°58'6 7.1
2018-Feb-02 15:29N 01°16' E 104°04'  

Dump ship's entire track history